Time;durP1;ratioP1;P1;durP2;ratioP2;P2;SDS_P1;SDS_P2;PMS_P1;PMS_P2;Temp;Humidity;BMP_temperature;BMP_pressure;BME280_temperature;BME280_humidity;BME280_pressure;Samples;Min_cycle;Max_cycle;Signal;HPM_P1;HPM_P2
2022/03/04 00:01:06;;;;;;;25.05;13.93;;;;;;;;;;4898887;29;20044;-70
2022/03/04 00:03:31;;;;;;;28.75;15.65;;;;;;;;;;4899295;29;20096;-68
2022/03/04 00:05:57;;;;;;;23.80;14.13;;;;;;;;;;4899725;29;20456;-69
2022/03/04 00:08:23;;;;;;;22.02;14.63;;;;;;;;;;4899382;29;20602;-70
2022/03/04 00:10:49;;;;;;;23.33;14.15;;;;;;;;;;4899093;29;20068;-68
2022/03/04 00:13:15;;;;;;;27.98;14.98;;;;;;;;;;4899467;29;20024;-77
2022/03/04 00:15:40;;;;;;;25.77;13.98;;;;;;;;;;4899329;29;20037;-77
2022/03/04 00:18:06;;;;;;;24.02;14.75;;;;;;;;;;4880454;29;20476;-75
2022/03/04 00:20:33;;;;;;;22.05;13.45;;;;;;;;;;4880540;29;20052;-67
2022/03/04 00:22:58;;;;;;;24.25;14.98;;;;;;;;;;4880536;29;20544;-73
2022/03/04 00:25:24;;;;;;;24.27;15.85;;;;;;;;;;4880152;29;20112;-77
2022/03/04 00:27:50;;;;;;;26.20;14.85;;;;;;;;;;4878993;29;20028;-76
2022/03/04 00:30:16;;;;;;;30.23;15.73;;;;;;;;;;4879612;29;20569;-76
2022/03/04 00:32:42;;;;;;;25.10;14.13;;;;;;;;;;4878514;29;20021;-78
2022/03/04 00:35:08;;;;;;;23.88;14.82;;;;;;;;;;4881345;29;20496;-76
2022/03/04 00:37:34;;;;;;;22.35;13.52;;;;;;;;;;4881592;29;20076;-75
2022/03/04 00:40:00;;;;;;;21.27;13.35;;;;;;;;;;4884063;29;20084;-75
2022/03/04 00:42:27;;;;;;;28.02;14.90;;;;;;;;;;4880611;29;20032;-75
2022/03/04 00:44:54;;;;;;;30.45;14.77;;;;;;;;;;4893101;29;20033;-75
2022/03/04 00:47:19;;;;;;;22.67;13.50;;;;;;;;;;4895203;29;20117;-74
2022/03/04 00:49:45;;;;;;;29.60;16.25;;;;;;;;;;4898263;29;20045;-69
2022/03/04 00:52:11;;;;;;;35.63;17.38;;;;;;;;;;4900421;29;20041;-73
2022/03/04 00:54:37;;;;;;;24.83;15.40;;;;;;;;;;4898924;29;20037;-75
2022/03/04 00:57:03;;;;;;;25.25;14.50;;;;;;;;;;4898427;29;20036;-66
2022/03/04 00:59:29;;;;;;;25.05;14.15;;;;;;;;;;4898511;29;20124;-76
2022/03/04 01:01:55;;;;;;;28.05;15.90;;;;;;;;;;4898826;29;20461;-74
2022/03/04 01:04:21;;;;;;;26.25;14.82;;;;;;;;;;4898681;29;20115;-72
2022/03/04 01:06:47;;;;;;;22.83;15.20;;;;;;;;;;4898481;29;20037;-76
2022/03/04 01:09:13;;;;;;;23.27;15.32;;;;;;;;;;4898066;29;20044;-74
2022/03/04 01:11:39;;;;;;;21.98;13.93;;;;;;;;;;4898248;29;20365;-76
2022/03/04 01:14:06;;;;;;;24.33;14.20;;;;;;;;;;4898156;29;20033;-73
2022/03/04 01:16:32;;;;;;;19.08;13.00;;;;;;;;;;4898265;29;20498;-75
2022/03/04 01:18:58;;;;;;;22.92;14.25;;;;;;;;;;4898082;29;20120;-74
2022/03/04 01:21:23;;;;;;;23.60;13.65;;;;;;;;;;4896514;29;20087;-73
2022/03/04 01:23:49;;;;;;;20.90;13.57;;;;;;;;;;4897970;29;20033;-71
2022/03/04 01:26:15;;;;;;;19.63;12.48;;;;;;;;;;4897865;29;20092;-75
2022/03/04 01:28:41;;;;;;;17.67;12.10;;;;;;;;;;4897875;29;20037;-75
2022/03/04 01:31:10;;;;;;;21.35;13.35;;;;;;;;;;4898016;29;20060;-71
2022/03/04 01:33:36;;;;;;;26.60;13.73;;;;;;;;;;4897904;29;20032;-73
2022/03/04 01:36:02;;;;;;;20.33;12.88;;;;;;;;;;4897681;29;20122;-74
2022/03/04 01:38:28;;;;;;;20.70;12.18;;;;;;;;;;4897726;29;20064;-76
2022/03/04 01:40:54;;;;;;;20.33;11.68;;;;;;;;;;4897827;29;20556;-69
2022/03/04 01:43:20;;;;;;;18.38;11.80;;;;;;;;;;4897809;29;20059;-73
2022/03/04 01:45:45;;;;;;;18.33;11.55;;;;;;;;;;4897758;29;20040;-70
2022/03/04 01:48:13;;;;;;;19.40;11.95;;;;;;;;;;4896536;29;20036;-76
2022/03/04 01:50:38;;;;;;;15.82;11.25;;;;;;;;;;4897486;29;20033;-74
2022/03/04 01:53:04;;;;;;;16.38;10.93;;;;;;;;;;4897142;29;20044;-70
2022/03/04 01:55:30;;;;;;;20.15;11.88;;;;;;;;;;4897107;29;20107;-66
2022/03/04 01:57:56;;;;;;;21.88;12.85;;;;;;;;;;4897241;29;20040;-70
2022/03/04 02:00:24;;;;;;;19.70;12.98;;;;;;;;;;4897351;29;20435;-76
2022/03/04 02:02:50;;;;;;;20.35;13.07;;;;;;;;;;4897354;29;20045;-74
2022/03/04 02:05:18;;;;;;;23.45;14.80;;;;;;;;;;4897359;29;20028;-64
2022/03/04 02:07:44;;;;;;;24.15;13.50;;;;;;;;;;4896049;29;20048;-71
2022/03/04 02:10:11;;;;;;;21.63;13.70;;;;;;;;;;4897046;29;20072;-67
2022/03/04 02:12:37;;;;;;;21.58;12.30;;;;;;;;;;4897169;29;20068;-72
2022/03/04 02:15:04;;;;;;;18.67;12.00;;;;;;;;;;4897361;29;20067;-68
2022/03/04 02:17:31;;;;;;;21.60;12.27;;;;;;;;;;4897020;29;20108;-69
2022/03/04 02:19:57;;;;;;;23.38;12.27;;;;;;;;;;4897212;29;20029;-68
2022/03/04 02:22:23;;;;;;;19.98;11.95;;;;;;;;;;4897165;29;20088;-75
2022/03/04 02:24:48;;;;;;;17.02;10.32;;;;;;;;;;4897466;29;20029;-73
2022/03/04 02:27:14;;;;;;;15.10;10.40;;;;;;;;;;4891267;29;20044;-70
2022/03/04 02:29:40;;;;;;;16.48;10.18;;;;;;;;;;4878350;29;20044;-65
2022/03/04 02:32:06;;;;;;;18.33;11.25;;;;;;;;;;4879986;29;20033;-65
2022/03/04 02:34:32;;;;;;;22.10;11.90;;;;;;;;;;4878191;29;20071;-66
2022/03/04 02:36:58;;;;;;;16.80;11.13;;;;;;;;;;4879287;29;20033;-68
2022/03/04 02:39:24;;;;;;;17.80;11.30;;;;;;;;;;4878451;29;20056;-71
2022/03/04 02:41:49;;;;;;;18.33;11.18;;;;;;;;;;4881435;29;20057;-70
2022/03/04 02:44:15;;;;;;;19.40;11.00;;;;;;;;;;4877951;29;20057;-68
2022/03/04 02:46:42;;;;;;;17.45;10.35;;;;;;;;;;4876971;29;20033;-68
2022/03/04 02:49:09;;;;;;;18.48;10.50;;;;;;;;;;4878496;29;20132;-71
2022/03/04 02:51:36;;;;;;;19.40;10.73;;;;;;;;;;4878029;29;20049;-71
2022/03/04 02:54:02;;;;;;;17.33;10.57;;;;;;;;;;4877834;29;20469;-65
2022/03/04 02:56:28;;;;;;;18.42;11.48;;;;;;;;;;4878155;29;20401;-66
2022/03/04 02:58:54;;;;;;;22.88;11.73;;;;;;;;;;4878128;29;20049;-65
2022/03/04 03:01:20;;;;;;;19.50;11.07;;;;;;;;;;4878278;29;20508;-65
2022/03/04 03:03:45;;;;;;;27.10;12.93;;;;;;;;;;4878222;29;20461;-71
2022/03/04 03:06:11;;;;;;;19.60;11.40;;;;;;;;;;4881008;29;20041;-70
2022/03/04 03:08:37;;;;;;;27.40;12.68;;;;;;;;;;4882130;29;20029;-70
2022/03/04 03:11:03;;;;;;;19.33;11.18;;;;;;;;;;4881447;29;20049;-69
2022/03/04 03:13:29;;;;;;;21.60;11.68;;;;;;;;;;4880206;29;20025;-73
2022/03/04 03:15:55;;;;;;;18.98;11.25;;;;;;;;;;4881265;29;20043;-71
2022/03/04 03:18:21;;;;;;;21.40;11.50;;;;;;;;;;4881634;29;20025;-65
2022/03/04 03:20:47;;;;;;;20.52;11.68;;;;;;;;;;4881441;29;20075;-67
2022/03/04 03:23:13;;;;;;;19.35;11.15;;;;;;;;;;4880092;29;20029;-64
2022/03/04 03:25:39;;;;;;;22.55;10.77;;;;;;;;;;4881427;29;20084;-68
2022/03/04 03:28:05;;;;;;;35.63;12.77;;;;;;;;;;4881596;29;20491;-73
2022/03/04 03:30:31;;;;;;;30.70;13.00;;;;;;;;;;4881203;29;20076;-66
2022/03/04 03:32:57;;;;;;;27.10;12.45;;;;;;;;;;4881400;29;20033;-65
2022/03/04 03:35:24;;;;;;;22.70;12.20;;;;;;;;;;4881266;29;20043;-68
2022/03/04 03:37:50;;;;;;;22.52;11.80;;;;;;;;;;4881575;29;20079;-65
2022/03/04 03:40:16;;;;;;;29.73;13.05;;;;;;;;;;4881065;29;20497;-68
2022/03/04 03:42:42;;;;;;;23.05;12.27;;;;;;;;;;4880591;29;20043;-68
2022/03/04 03:45:11;;;;;;;19.23;11.55;;;;;;;;;;4880788;29;20044;-64
2022/03/04 03:47:38;;;;;;;23.10;12.48;;;;;;;;;;4880601;29;20084;-68
2022/03/04 03:50:09;;;;;;;19.17;11.82;;;;;;;;;;4880171;29;20055;-69
2022/03/04 03:52:36;;;;;;;20.58;12.32;;;;;;;;;;4880951;29;20186;-65
2022/03/04 03:55:02;;;;;;;29.55;12.77;;;;;;;;;;4881826;29;20029;-65
2022/03/04 03:57:28;;;;;;;25.42;11.73;;;;;;;;;;4881484;29;20033;-68
2022/03/04 03:59:54;;;;;;;21.95;11.63;;;;;;;;;;4880562;29;20067;-70
2022/03/04 04:02:20;;;;;;;19.42;11.00;;;;;;;;;;4880695;29;20549;-65
2022/03/04 04:04:46;;;;;;;19.20;11.05;;;;;;;;;;4880545;29;20465;-64
2022/03/04 04:07:12;;;;;;;21.20;12.73;;;;;;;;;;4879291;29;20033;-70
2022/03/04 04:09:39;;;;;;;25.33;14.55;;;;;;;;;;4880316;29;20380;-65
2022/03/04 04:12:05;;;;;;;20.02;13.95;;;;;;;;;;4880375;29;20033;-69
2022/03/04 04:14:31;;;;;;;25.38;14.35;;;;;;;;;;4880882;29;20065;-68
2022/03/04 04:16:57;;;;;;;24.20;14.68;;;;;;;;;;4880926;29;20052;-67
2022/03/04 04:19:24;;;;;;;24.48;14.82;;;;;;;;;;4880439;29;20033;-67
2022/03/04 04:21:50;;;;;;;28.85;15.32;;;;;;;;;;4880357;29;20044;-75
2022/03/04 04:24:16;;;;;;;29.35;15.23;;;;;;;;;;4880112;29;20025;-65
2022/03/04 04:26:43;;;;;;;26.40;15.10;;;;;;;;;;4880243;29;20496;-71
2022/03/04 04:29:09;;;;;;;27.85;14.55;;;;;;;;;;4880374;29;20461;-70
2022/03/04 04:31:35;;;;;;;25.38;13.98;;;;;;;;;;4880188;29;20106;-68
2022/03/04 04:34:02;;;;;;;24.05;14.02;;;;;;;;;;4897570;29;20024;-67
2022/03/04 04:36:28;;;;;;;32.85;15.68;;;;;;;;;;4898601;29;20488;-67
2022/03/04 04:38:54;;;;;;;34.92;15.32;;;;;;;;;;4898719;29;20036;-64
2022/03/04 04:41:21;;;;;;;36.90;15.93;;;;;;;;;;4897960;29;20028;-68
2022/03/04 04:43:47;;;;;;;38.00;16.30;;;;;;;;;;4898540;29;20480;-67
2022/03/04 04:46:13;;;;;;;40.53;16.55;;;;;;;;;;4898562;29;20396;-65
2022/03/04 04:48:39;;;;;;;33.38;15.95;;;;;;;;;;4898065;29;20038;-73
2022/03/04 04:51:05;;;;;;;56.25;17.88;;;;;;;;;;4898226;29;20449;-64
2022/03/04 04:53:32;;;;;;;38.08;17.95;;;;;;;;;;4898490;29;20413;-72
2022/03/04 04:55:59;;;;;;;34.60;17.52;;;;;;;;;;4898318;29;20036;-65
2022/03/04 04:58:25;;;;;;;39.20;16.65;;;;;;;;;;4850591;29;1399167;-65
2022/03/04 05:00:54;;;;;;;29.73;15.82;;;;;;;;;;4893621;29;20457;-75
2022/03/04 05:03:24;;;;;;;42.13;15.70;;;;;;;;;;4880235;29;20120;-69
2022/03/04 05:05:54;;;;;;;33.67;17.83;;;;;;;;;;4894510;29;20040;-70
2022/03/04 05:08:20;;;;;;;28.63;15.18;;;;;;;;;;4898475;29;20127;-71
2022/03/04 05:10:47;;;;;;;38.70;15.73;;;;;;;;;;4898181;29;20100;-73
2022/03/04 05:13:14;;;;;;;23.77;13.43;;;;;;;;;;4901588;29;20042;-72
2022/03/04 05:15:41;;;;;;;23.13;12.45;;;;;;;;;;4897991;29;20408;-68
2022/03/04 05:18:08;;;;;;;27.15;12.82;;;;;;;;;;4898434;29;20040;-67
2022/03/04 05:20:34;;;;;;;19.05;12.07;;;;;;;;;;4898700;29;20101;-74
2022/03/04 05:23:01;;;;;;;38.22;14.93;;;;;;;;;;4901667;29;20125;-76
2022/03/04 05:25:27;;;;;;;30.17;13.68;;;;;;;;;;4897067;29;20131;-72
2022/03/04 05:27:52;;;;;;;27.30;14.82;;;;;;;;;;4879783;29;20040;-75
2022/03/04 05:30:18;;;;;;;25.38;11.90;;;;;;;;;;4879617;29;20469;-72
2022/03/04 05:32:45;;;;;;;20.55;11.35;;;;;;;;;;4879983;29;20053;-67
2022/03/04 05:35:11;;;;;;;39.25;12.85;;;;;;;;;;4880190;29;20105;-77
2022/03/04 05:37:37;;;;;;;32.65;15.25;;;;;;;;;;4882060;29;20454;-65
2022/03/04 05:40:04;;;;;;;32.08;13.05;;;;;;;;;;4880352;29;20508;-73
2022/03/04 05:42:30;;;;;;;23.48;12.35;;;;;;;;;;4878403;29;20548;-67
2022/03/04 05:44:56;;;;;;;25.55;13.13;;;;;;;;;;4879285;29;20049;-75
2022/03/04 05:47:23;;;;;;;26.50;14.45;;;;;;;;;;4879247;29;20033;-68
2022/03/04 05:49:48;;;;;;;32.97;14.40;;;;;;;;;;4879315;29;20161;-66
2022/03/04 05:52:14;;;;;;;33.38;15.35;;;;;;;;;;4879002;29;20041;-73
2022/03/04 05:54:40;;;;;;;34.78;14.65;;;;;;;;;;4878803;29;20112;-73
2022/03/04 05:57:06;;;;;;;39.55;15.70;;;;;;;;;;4879257;29;20037;-72
2022/03/04 05:59:32;;;;;;;37.15;15.80;;;;;;;;;;4879092;29;20052;-69
2022/03/04 06:01:58;;;;;;;32.92;15.27;;;;;;;;;;4879367;29;20045;-69
2022/03/04 06:04:24;;;;;;;33.08;15.02;;;;;;;;;;4878929;29;20109;-70
2022/03/04 06:06:50;;;;;;;36.05;15.35;;;;;;;;;;4878902;29;20034;-76
2022/03/04 06:09:16;;;;;;;34.67;14.98;;;;;;;;;;4878302;29;20065;-68
2022/03/04 06:11:44;;;;;;;35.85;15.07;;;;;;;;;;4878357;29;20041;-65
2022/03/04 06:14:10;;;;;;;36.83;16.73;;;;;;;;;;4878673;29;20025;-73
2022/03/04 06:16:36;;;;;;;32.95;15.25;;;;;;;;;;4879522;29;20101;-71
2022/03/04 06:19:02;;;;;;;36.67;18.33;;;;;;;;;;4878976;29;20465;-71
2022/03/04 06:21:28;;;;;;;49.47;17.40;;;;;;;;;;4878484;29;20093;-70
2022/03/04 06:23:54;;;;;;;48.22;18.75;;;;;;;;;;4884046;29;20060;-66
2022/03/04 06:26:20;;;;;;;51.05;18.55;;;;;;;;;;4897512;29;20067;-73
2022/03/04 06:28:46;;;;;;;42.55;19.02;;;;;;;;;;4897392;29;20025;-70
2022/03/04 06:31:12;;;;;;;35.80;18.27;;;;;;;;;;4891424;29;20032;-72
2022/03/04 06:33:39;;;;;;;28.15;16.58;;;;;;;;;;4880506;29;20392;-71
2022/03/04 06:36:07;;;;;;;27.55;13.73;;;;;;;;;;4892571;29;20040;-69
2022/03/04 06:38:35;;;;;;;20.48;12.55;;;;;;;;;;4896585;29;20396;-72
2022/03/04 06:41:02;;;;;;;25.05;12.82;;;;;;;;;;4896457;29;20032;-69
2022/03/04 06:43:28;;;;;;;25.63;13.38;;;;;;;;;;4894135;29;20024;-71
2022/03/04 06:45:53;;;;;;;25.55;13.27;;;;;;;;;;4888875;29;20140;-72
2022/03/04 06:48:21;;;;;;;19.77;12.65;;;;;;;;;;4878131;29;20029;-72
2022/03/04 06:50:51;;;;;;;24.92;13.68;;;;;;;;;;4884010;29;20071;-73
2022/03/04 06:53:17;;;;;;;20.63;12.85;;;;;;;;;;4889105;29;20066;-73
2022/03/04 06:55:44;;;;;;;28.75;14.32;;;;;;;;;;4877985;29;20037;-72
2022/03/04 06:58:10;;;;;;;25.10;14.15;;;;;;;;;;4877581;29;20063;-73
2022/03/04 07:00:38;;;;;;;23.40;12.85;;;;;;;;;;4877029;29;20441;-71
2022/03/04 07:03:04;;;;;;;22.30;14.13;;;;;;;;;;4877186;29;20027;-75
2022/03/04 07:05:30;;;;;;;28.92;14.75;;;;;;;;;;4878079;29;20040;-69
2022/03/04 07:07:56;;;;;;;25.42;14.20;;;;;;;;;;4877859;29;20025;-74
2022/03/04 07:10:22;;;;;;;22.45;12.38;;;;;;;;;;4876499;29;20033;-71
2022/03/04 07:13:14;;;;;;;21.67;11.82;;;;;;;;;;4876251;29;20033;-72
2022/03/04 07:15:44;;;;;;;25.50;12.20;;;;;;;;;;4884747;29;20049;-74
2022/03/04 07:18:11;;;;;;;19.75;12.13;;;;;;;;;;4895575;29;20424;-78
2022/03/04 07:20:37;;;;;;;22.75;13.85;;;;;;;;;;4896773;29;20064;-75
2022/03/04 07:23:03;;;;;;;19.83;12.80;;;;;;;;;;4896748;29;20040;-73
2022/03/04 07:25:29;;;;;;;23.70;12.15;;;;;;;;;;4896482;29;20382;-78
2022/03/04 07:27:55;;;;;;;23.95;12.82;;;;;;;;;;4896124;29;20089;-74
2022/03/04 07:30:21;;;;;;;21.30;13.18;;;;;;;;;;4896739;29;20485;-78
2022/03/04 07:32:48;;;;;;;20.65;11.82;;;;;;;;;;4896875;29;20029;-75
2022/03/04 07:35:15;;;;;;;18.33;11.43;;;;;;;;;;4896493;29;20048;-76
2022/03/04 07:37:42;;;;;;;23.73;13.23;;;;;;;;;;4896621;29;20025;-74
2022/03/04 07:40:11;;;;;;;18.63;11.90;;;;;;;;;;4896390;29;20043;-75
2022/03/04 07:42:37;;;;;;;26.65;12.57;;;;;;;;;;4896156;29;20028;-74
2022/03/04 07:45:06;;;;;;;18.27;12.65;;;;;;;;;;4896035;29;20080;-75
2022/03/04 07:47:32;;;;;;;18.50;11.90;;;;;;;;;;4897008;29;20088;-77
2022/03/04 07:49:58;;;;;;;18.02;11.13;;;;;;;;;;4896816;29;20032;-74
2022/03/04 07:52:31;;;;;;;22.25;13.40;;;;;;;;;;4899206;29;20043;-76
2022/03/04 07:55:02;;;;;;;28.88;14.00;;;;;;;;;;4899817;29;20044;-71
2022/03/04 07:57:27;;;;;;;18.10;12.07;;;;;;;;;;4899619;29;20044;-70
2022/03/04 07:59:53;;;;;;;27.17;12.65;;;;;;;;;;4899588;29;20051;-73
2022/03/04 08:02:20;;;;;;;20.10;10.45;;;;;;;;;;4899588;29;20045;-71
2022/03/04 08:04:46;;;;;;;25.45;12.75;;;;;;;;;;4898113;29;20514;-73
2022/03/04 08:07:13;;;;;;;28.30;13.20;;;;;;;;;;4899548;29;20043;-69
2022/03/04 08:09:39;;;;;;;23.45;13.18;;;;;;;;;;4899461;29;20036;-70
2022/03/04 08:12:07;;;;;;;24.90;13.85;;;;;;;;;;4897869;29;20139;-75
2022/03/04 08:14:33;;;;;;;22.70;13.00;;;;;;;;;;4899028;29;20051;-71
2022/03/04 08:16:58;;;;;;;23.27;12.60;;;;;;;;;;4898857;29;20504;-73
2022/03/04 08:19:24;;;;;;;22.40;13.20;;;;;;;;;;4899573;29;20035;-71
2022/03/04 08:21:50;;;;;;;19.40;12.32;;;;;;;;;;4899409;29;20040;-74
2022/03/04 08:24:16;;;;;;;20.85;12.80;;;;;;;;;;4899333;29;20429;-75
2022/03/04 08:26:41;;;;;;;21.15;12.68;;;;;;;;;;4899077;29;20047;-71
2022/03/04 08:29:10;;;;;;;21.77;12.55;;;;;;;;;;4898950;29;20098;-77
2022/03/04 08:31:37;;;;;;;20.40;11.85;;;;;;;;;;4899814;29;20119;-72
2022/03/04 08:34:04;;;;;;;19.48;11.88;;;;;;;;;;4898412;29;20499;-70
2022/03/04 08:36:32;;;;;;;17.85;12.25;;;;;;;;;;4898459;29;20079;-71
2022/03/04 08:38:59;;;;;;;20.83;12.38;;;;;;;;;;4898593;29;20043;-70
2022/03/04 08:41:25;;;;;;;27.73;13.45;;;;;;;;;;4898280;29;20048;-69
2022/03/04 08:43:51;;;;;;;21.80;13.25;;;;;;;;;;4898910;29;20033;-71
2022/03/04 08:46:17;;;;;;;22.50;13.63;;;;;;;;;;4898293;29;20081;-70
2022/03/04 08:48:43;;;;;;;19.95;13.40;;;;;;;;;;4898365;29;20025;-72
2022/03/04 08:51:09;;;;;;;18.20;12.23;;;;;;;;;;4898305;29;20037;-74
2022/03/04 08:53:35;;;;;;;18.50;13.25;;;;;;;;;;4897143;29;20307;-72
2022/03/04 08:56:03;;;;;;;21.85;13.35;;;;;;;;;;4898449;29;20072;-74
2022/03/04 08:58:29;;;;;;;21.15;12.80;;;;;;;;;;4898365;29;20041;-70
2022/03/04 09:00:55;;;;;;;15.85;11.63;;;;;;;;;;4898315;29;20553;-74
2022/03/04 09:03:21;;;;;;;18.17;11.63;;;;;;;;;;4897618;29;20036;-73
2022/03/04 09:05:47;;;;;;;23.52;14.45;;;;;;;;;;4897936;29;20037;-70
2022/03/04 09:08:13;;;;;;;18.52;12.65;;;;;;;;;;4898669;29;20388;-71
2022/03/04 09:10:39;;;;;;;17.40;12.52;;;;;;;;;;4898303;29;20132;-73
2022/03/04 09:13:04;;;;;;;16.40;12.05;;;;;;;;;;4898050;29;20029;-76
2022/03/04 09:15:31;;;;;;;24.73;11.25;;;;;;;;;;4898252;29;20029;-75
2022/03/04 09:17:57;;;;;;;15.90;10.38;;;;;;;;;;4897795;29;20032;-74
2022/03/04 09:20:23;;;;;;;22.77;10.45;;;;;;;;;;4897643;29;20373;-72
2022/03/04 09:22:48;;;;;;;15.40;9.95;;;;;;;;;;4898152;29;20091;-71
2022/03/04 09:25:15;;;;;;;16.45;10.57;;;;;;;;;;4897909;29;20033;-75
2022/03/04 09:27:46;;;;;;;17.30;9.38;;;;;;;;;;4898319;29;20368;-75
2022/03/04 09:30:12;;;;;;;12.98;8.90;;;;;;;;;;4897560;29;20143;-72
2022/03/04 09:32:39;;;;;;;13.23;9.00;;;;;;;;;;4897848;29;20029;-75
2022/03/04 09:35:05;;;;;;;13.52;8.80;;;;;;;;;;4897647;29;20120;-73
2022/03/04 09:37:32;;;;;;;18.83;9.10;;;;;;;;;;4897886;29;20127;-70
2022/03/04 09:40:00;;;;;;;11.80;8.18;;;;;;;;;;4897433;29;20033;-76
2022/03/04 09:42:25;;;;;;;17.23;7.85;;;;;;;;;;4896085;29;20033;-71
2022/03/04 09:44:52;;;;;;;12.98;8.50;;;;;;;;;;4897305;29;20460;-70
2022/03/04 09:47:21;;;;;;;10.15;5.97;;;;;;;;;;4897511;29;20121;-68
2022/03/04 09:49:49;;;;;;;10.13;5.93;;;;;;;;;;4897236;29;20115;-74
2022/03/04 09:52:15;;;;;;;13.40;6.57;;;;;;;;;;4897202;29;20024;-69
2022/03/04 09:54:45;;;;;;;21.00;7.47;;;;;;;;;;4896269;29;20479;-73
2022/03/04 09:57:11;;;;;;;17.48;7.75;;;;;;;;;;4897505;29;20416;-72
2022/03/04 09:59:36;;;;;;;11.32;7.18;;;;;;;;;;4897343;29;20147;-74
2022/03/04 10:02:02;;;;;;;14.75;7.75;;;;;;;;;;4897265;29;20047;-69
2022/03/04 10:04:28;;;;;;;12.35;8.15;;;;;;;;;;4897424;29;20469;-72
2022/03/04 10:06:55;;;;;;;14.48;7.70;;;;;;;;;;4896755;29;20043;-69
2022/03/04 10:09:34;;;;;;;10.90;6.90;;;;;;;;;;4897043;29;20029;-72
2022/03/04 10:12:04;;;;;;;13.90;6.63;;;;;;;;;;4896711;29;20044;-70
2022/03/04 10:14:31;;;;;;;15.23;8.25;;;;;;;;;;4895756;29;20421;-71
2022/03/04 10:16:57;;;;;;;14.15;7.03;;;;;;;;;;4896611;29;20132;-69
2022/03/04 10:19:24;;;;;;;12.45;8.05;;;;;;;;;;4896239;29;20045;-68
2022/03/04 10:21:58;;;;;;;12.30;8.27;;;;;;;;;;4896876;29;20037;-71
2022/03/04 10:24:44;;;;;;;13.57;8.05;;;;;;;;;;4896924;29;20037;-69
2022/03/04 10:27:14;;;;;;;14.82;9.05;;;;;;;;;;4896697;29;20044;-70
2022/03/04 10:29:44;;;;;;;12.25;8.93;;;;;;;;;;4896668;29;20037;-67
2022/03/04 10:32:16;;;;;;;12.98;8.15;;;;;;;;;;4896809;29;20044;-68
2022/03/04 10:35:01;;;;;;;11.88;7.78;;;;;;;;;;4896955;29;20032;-69
2022/03/04 10:37:52;;;;;;;17.52;9.13;;;;;;;;;;4897012;29;20067;-67
2022/03/04 10:40:23;;;;;;;15.07;8.75;;;;;;;;;;4897049;29;20036;-67
2022/03/04 10:42:52;;;;;;;13.27;9.02;;;;;;;;;;4896410;29;20047;-69
2022/03/04 10:45:23;;;;;;;17.80;10.45;;;;;;;;;;4896469;29;20043;-66
2022/03/04 10:47:52;;;;;;;12.52;7.57;;;;;;;;;;4890140;29;20068;-68
2022/03/04 10:50:25;;;;;;;12.30;8.23;;;;;;;;;;4880318;29;20059;-69
2022/03/04 10:52:57;;;;;;;12.55;8.30;;;;;;;;;;4878132;29;20069;-67
2022/03/04 10:55:45;;;;;;;11.00;7.50;;;;;;;;;;4878041;29;20462;-71
2022/03/04 10:58:23;;;;;;;14.35;7.70;;;;;;;;;;4878010;29;20120;-68
2022/03/04 11:00:54;;;;;;;9.27;6.43;;;;;;;;;;4890353;29;20434;-74
2022/03/04 11:03:28;;;;;;;12.98;7.13;;;;;;;;;;4883629;29;20089;-67
2022/03/04 11:05:56;;;;;;;9.43;6.70;;;;;;;;;;4878173;29;20400;-71
2022/03/04 11:08:22;;;;;;;13.98;7.13;;;;;;;;;;4884473;29;20432;-69
2022/03/04 11:10:50;;;;;;;15.10;7.32;;;;;;;;;;4896157;29;20105;-71
2022/03/04 11:13:16;;;;;;;14.15;7.95;;;;;;;;;;4896498;29;20139;-69
2022/03/04 11:15:43;;;;;;;10.73;6.63;;;;;;;;;;4896050;29;20028;-68
2022/03/04 11:18:12;;;;;;;10.38;6.88;;;;;;;;;;4896659;29;20396;-68
2022/03/04 11:20:39;;;;;;;11.27;7.28;;;;;;;;;;4886775;29;20496;-69
2022/03/04 11:23:07;;;;;;;14.23;7.82;;;;;;;;;;4895744;29;20479;-67
2022/03/04 11:25:42;;;;;;;11.38;6.22;;;;;;;;;;4894508;29;20107;-68
2022/03/04 11:28:15;;;;;;;15.63;6.15;;;;;;;;;;4881500;29;20854;-79
2022/03/04 11:30:51;;;;;;;;;;;;;;;;;;4882264;29;20033;-76
2022/03/04 11:33:29;;;;;;;10.38;6.35;;;;;;;;;;4881407;29;19924;-72
2022/03/04 11:35:58;;;;;;;10.35;6.22;;;;;;;;;;4881675;29;20037;-78
2022/03/04 11:38:49;;;;;;;11.10;6.03;;;;;;;;;;4891996;29;20033;-72
2022/03/04 11:41:27;;;;;;;13.77;5.90;;;;;;;;;;4900233;29;20096;-80
2022/03/04 11:43:58;;;;;;;8.73;5.80;;;;;;;;;;4899642;29;20385;-79
2022/03/04 11:46:28;;;;;;;10.13;6.30;;;;;;;;;;4899427;29;20025;-70
2022/03/04 11:49:29;;;;;;;13.98;6.85;;;;;;;;;;4900130;29;20064;-70
2022/03/04 11:52:07;;;;;;;12.20;6.18;;;;;;;;;;4899501;29;20139;-79
2022/03/04 11:54:34;;;;;;;12.43;6.15;;;;;;;;;;4891336;29;20032;-75
2022/03/04 11:57:15;;;;;;;10.10;6.53;;;;;;;;;;4880671;29;20084;-73
2022/03/04 11:59:54;;;;;;;15.35;7.63;;;;;;;;;;4881228;29;20053;-75
2022/03/04 12:02:21;;;;;;;10.85;6.45;;;;;;;;;;4882923;29;20033;-79
2022/03/04 12:04:49;;;;;;;9.65;6.28;;;;;;;;;;4880032;29;20024;-74
2022/03/04 12:07:15;;;;;;;15.32;8.05;;;;;;;;;;4879521;29;20127;-73
2022/03/04 12:09:49;;;;;;;10.57;7.00;;;;;;;;;;4879700;29;20029;-69
2022/03/04 12:12:24;;;;;;;11.10;7.43;;;;;;;;;;4880882;29;20052;-69
2022/03/04 12:15:15;;;;;;;14.20;8.23;;;;;;;;;;4880750;29;20370;-72
2022/03/04 12:18:04;;;;;;;10.25;6.85;;;;;;;;;;4879794;29;20136;-77
2022/03/04 12:20:39;;;;;;;11.93;6.85;;;;;;;;;;4880286;29;20116;-77
2022/03/04 12:23:36;;;;;;;10.48;7.15;;;;;;;;;;4880759;29;20400;-71
2022/03/04 12:26:02;;;;;;;18.60;8.07;;;;;;;;;;4876225;29;20060;-72
2022/03/04 12:28:42;;;;;;;11.85;6.55;;;;;;;;;;4880742;29;20113;-71
2022/03/04 12:31:07;;;;;;;11.55;6.85;;;;;;;;;;4880969;29;20041;-68
2022/03/04 12:33:45;;;;;;;9.80;6.93;;;;;;;;;;4880584;29;20377;-71
2022/03/04 12:36:16;;;;;;;16.25;6.78;;;;;;;;;;4880293;29;20115;-74
2022/03/04 12:38:45;;;;;;;14.35;6.78;;;;;;;;;;4880586;29;20029;-78
2022/03/04 12:41:18;;;;;;;14.52;6.90;;;;;;;;;;4880697;29;20025;-73
2022/03/04 12:43:51;;;;;;;10.88;7.07;;;;;;;;;;4880696;29;20041;-75
2022/03/04 12:46:20;;;;;;;9.38;6.15;;;;;;;;;;4880263;29;20040;-70
2022/03/04 12:48:47;;;;;;;16.80;6.70;;;;;;;;;;4881005;29;20066;-76
2022/03/04 12:51:20;;;;;;;11.77;7.65;;;;;;;;;;4880230;29;20100;-70
2022/03/04 12:53:46;;;;;;;9.80;5.95;;;;;;;;;;4879945;29;20074;-76
2022/03/04 12:56:12;;;;;;;14.45;6.72;;;;;;;;;;4879905;29;20060;-76
2022/03/04 12:58:46;;;;;;;10.43;6.30;;;;;;;;;;4880397;29;20060;-72
2022/03/04 13:01:14;;;;;;;10.85;5.68;;;;;;;;;;4881321;29;20040;-71
2022/03/04 13:03:55;;;;;;;12.32;5.93;;;;;;;;;;4883407;29;20366;-71
2022/03/04 13:06:22;;;;;;;11.38;6.70;;;;;;;;;;4884112;29;20033;-73
2022/03/04 13:08:51;;;;;;;9.63;6.03;;;;;;;;;;4884297;29;20373;-70
2022/03/04 13:11:21;;;;;;;11.38;5.80;;;;;;;;;;4882317;29;20053;-74
2022/03/04 13:14:04;;;;;;;9.38;5.80;;;;;;;;;;4880091;29;20048;-77
2022/03/04 13:16:41;;;;;;;11.20;6.13;;;;;;;;;;4880035;29;20143;-74
2022/03/04 13:19:19;;;;;;;10.10;5.88;;;;;;;;;;4879831;29;20772;-72
2022/03/04 13:22:02;;;;;;;8.15;5.57;;;;;;;;;;4880159;29;20049;-70
2022/03/04 13:24:30;;;;;;;12.70;5.22;;;;;;;;;;4880151;29;20469;-73
2022/03/04 13:27:03;;;;;;;7.50;4.63;;;;;;;;;;4879838;29;20040;-74
2022/03/04 13:29:35;;;;;;;6.53;4.25;;;;;;;;;;4880000;29;20063;-74
2022/03/04 13:32:12;;;;;;;8.60;4.80;;;;;;;;;;4879640;29;20048;-76
2022/03/04 13:34:40;;;;;;;11.48;4.57;;;;;;;;;;4879893;29;20033;-72
2022/03/04 13:37:11;;;;;;;6.18;4.03;;;;;;;;;;4879705;29;20380;-78
2022/03/04 13:39:40;;;;;;;5.18;3.30;;;;;;;;;;4879894;29;20037;-72
2022/03/04 13:42:19;;;;;;;6.20;3.85;;;;;;;;;;4879710;29;20033;-76
2022/03/04 13:44:52;;;;;;;6.10;3.55;;;;;;;;;;4879086;29;20173;-74
2022/03/04 13:47:35;;;;;;;6.15;3.63;;;;;;;;;;4879318;29;20033;-71
2022/03/04 13:50:04;;;;;;;7.07;3.03;;;;;;;;;;4879196;29;20123;-77
2022/03/04 13:53:00;;;;;;;7.35;3.95;;;;;;;;;;4879391;29;20036;-76
2022/03/04 13:55:30;;;;;;;9.52;3.88;;;;;;;;;;4897009;29;20381;-74
2022/03/04 13:58:01;;;;;;;8.38;3.95;;;;;;;;;;4897347;29;20060;-72
2022/03/04 14:00:35;;;;;;;7.25;4.10;;;;;;;;;;4897672;29;20048;-76
2022/03/04 14:03:12;;;;;;;5.57;3.90;;;;;;;;;;4897404;29;20032;-71
2022/03/04 14:05:41;;;;;;;6.07;3.50;;;;;;;;;;4897186;29;20092;-78
2022/03/04 14:08:10;;;;;;;7.28;3.45;;;;;;;;;;4897725;29;20111;-72
2022/03/04 14:10:38;;;;;;;9.07;4.30;;;;;;;;;;4897232;29;20047;-70
2022/03/04 14:13:06;;;;;;;8.02;4.22;;;;;;;;;;4897298;29;20354;-72
2022/03/04 14:15:35;;;;;;;7.05;4.82;;;;;;;;;;4897435;29;20133;-76
2022/03/04 14:18:02;;;;;;;8.30;4.80;;;;;;;;;;4893047;29;20028;-73
2022/03/04 14:20:30;;;;;;;7.60;4.90;;;;;;;;;;4893274;29;20552;-74
2022/03/04 14:22:57;;;;;;;8.73;4.60;;;;;;;;;;4896491;29;20366;-74
2022/03/04 14:25:23;;;;;;;13.10;5.53;;;;;;;;;;4896383;29;20111;-76
2022/03/04 14:27:52;;;;;;;11.68;6.22;;;;;;;;;;4894301;29;20028;-76
2022/03/04 14:30:24;;;;;;;8.07;4.15;;;;;;;;;;4896238;29;20036;-72